Time;durP1;ratioP1;P1;durP2;ratioP2;P2;SDS_P1;SDS_P2;PMS_P1;PMS_P2;Temp;Humidity;BMP_temperature;BMP_pressure;BME280_temperature;BME280_humidity;BME280_pressure;Samples;Min_cycle;Max_cycle;Signal;HPM_P1;HPM_P2
2021/04/22 00:01:58;;;;;;;1.15;0.43;;;10.20;58.50;;;;;;4357364;32;20148;-39
2021/04/22 00:04:25;;;;;;;6.95;1.25;;;10.20;58.30;;;;;;4357403;32;20197;-40
2021/04/22 00:06:52;;;;;;;15.82;2.40;;;10.20;58.20;;;;;;4357150;32;20077;-38
2021/04/22 00:09:18;;;;;;;8.82;1.17;;;10.30;58.20;;;;;;4344658;32;20078;-39
2021/04/22 00:11:45;;;;;;;13.75;1.70;;;10.40;58.20;;;;;;4371319;32;20084;-37
2021/04/22 00:14:12;;;;;;;11.85;1.50;;;10.40;57.90;;;;;;4374461;32;20088;-39
2021/04/22 00:16:39;;;;;;;17.00;1.55;;;10.50;57.80;;;;;;4373267;32;20510;-38
2021/04/22 00:19:05;;;;;;;13.15;1.87;;;10.50;57.70;;;;;;4374312;32;20555;-38
2021/04/22 00:21:32;;;;;;;12.55;2.05;;;10.50;57.60;;;;;;4374684;32;20099;-40
2021/04/22 00:23:59;;;;;;;18.80;2.37;;;10.60;57.60;;;;;;4374413;32;20086;-41
2021/04/22 00:26:26;;;;;;;11.27;1.50;;;10.60;57.50;;;;;;4372769;32;20579;-39
2021/04/22 00:28:52;;;;;;;13.98;2.45;;;10.60;57.20;;;;;;4374671;32;20078;-40
2021/04/22 00:31:19;;;;;;;14.43;2.15;;;10.70;57.20;;;;;;4372695;32;20147;-41
2021/04/22 00:33:45;;;;;;;22.73;3.53;;;10.70;57.10;;;;;;4373928;32;20553;-40
2021/04/22 00:36:13;;;;;;;15.68;2.58;;;10.70;57.00;;;;;;4374559;32;20108;-40
2021/04/22 00:38:41;;;;;;;14.60;2.65;;;10.80;57.00;;;;;;4374255;32;20058;-40
2021/04/22 00:41:08;;;;;;;34.78;3.72;;;10.80;57.10;;;;;;4374446;32;20061;-40
2021/04/22 00:43:34;;;;;;;25.15;3.37;;;10.80;57.00;;;;;;4373777;32;20059;-41
2021/04/22 00:46:01;;;;;;;29.98;3.47;;;10.80;57.10;;;;;;4360567;32;20151;-41
2021/04/22 00:48:27;;;;;;;34.47;2.75;;;10.80;57.00;;;;;;4373972;32;20094;-41
2021/04/22 00:50:54;;;;;;;43.50;6.50;;;10.80;57.00;;;;;;4373957;32;20139;-40
2021/04/22 00:53:21;;;;;;;46.35;5.18;;;10.80;57.10;;;;;;4374145;32;20070;-39
2021/04/22 00:55:49;;;;;;;49.60;5.47;;;10.80;57.20;;;;;;4373826;32;20451;-39
2021/04/22 00:58:15;;;;;;;37.83;6.03;;;10.80;57.20;;;;;;4373855;32;20525;-39
2021/04/22 01:00:47;;;;;;;25.08;3.40;;;10.80;57.20;;;;;;4373784;32;20160;-40
2021/04/22 01:03:14;;;;;;;27.67;4.30;;;10.80;57.10;;;;;;4374077;32;20085;-39
2021/04/22 01:05:47;;;;;;;56.47;5.22;;;10.80;57.10;;;;;;4373532;32;20078;-38
2021/04/22 01:08:14;;;;;;;62.47;6.12;;;10.80;57.20;;;;;;4374392;32;20066;-40
2021/04/22 01:10:40;;;;;;;48.28;6.12;;;10.90;57.20;;;;;;4342465;33;20074;-41
2021/04/22 01:13:07;;;;;;;47.53;7.90;;;10.90;57.10;;;;;;4331032;33;20074;-40
2021/04/22 01:15:34;;;;;;;27.33;4.95;;;10.90;57.10;;;;;;4342540;33;20071;-40
2021/04/22 01:18:01;;;;;;;49.33;7.30;;;10.90;57.00;;;;;;4341474;33;20100;-41
2021/04/22 01:20:42;;;;;;;54.70;5.75;;;10.90;56.90;;;;;;4341097;33;20094;-40
2021/04/22 01:23:09;;;;;;;47.42;4.30;;;10.90;57.10;;;;;;4301648;33;20056;-38
2021/04/22 01:25:44;;;;;;;61.90;8.57;;;10.90;57.00;;;;;;4311680;33;20169;-41
2021/04/22 01:28:12;;;;;;;65.18;8.10;;;10.90;57.00;;;;;;4312007;33;20074;-40
2021/04/22 01:30:44;;;;;;;56.15;6.55;;;10.90;57.10;;;;;;4311563;33;20154;-37
2021/04/22 01:33:14;;;;;;;49.67;7.30;;;10.80;57.20;;;;;;4311885;33;20100;-41
2021/04/22 01:35:42;;;;;;;36.20;4.00;;;10.80;57.50;;;;;;4311856;33;20087;-39
2021/04/22 01:38:10;;;;;;;52.92;9.35;;;10.70;57.50;;;;;;4311725;33;20064;-39
2021/04/22 01:40:36;;;;;;;40.50;4.80;;;10.70;57.60;;;;;;4314546;32;20099;-40
2021/04/22 01:43:03;;;;;;;48.90;5.25;;;10.70;57.90;;;;;;4356195;32;20086;-40
2021/04/22 01:45:30;;;;;;;58.22;8.15;;;10.60;58.00;;;;;;4325719;33;20098;-39
2021/04/22 01:47:56;;;;;;;54.03;6.10;;;10.60;58.30;;;;;;4326405;33;20079;-40
2021/04/22 01:50:26;;;;;;;52.95;6.45;;;10.50;58.30;;;;;;4326355;33;20160;-39
2021/04/22 01:52:53;;;;;;;73.72;10.02;;;10.50;58.50;;;;;;4326117;33;20562;-40
2021/04/22 01:55:23;;;;;;;81.50;10.23;;;10.50;58.60;;;;;;4369914;32;20073;-39
2021/04/22 01:57:50;;;;;;;46.22;6.18;;;10.50;58.70;;;;;;4370620;32;20088;-39
2021/04/22 02:00:26;;;;;;;62.30;7.25;;;10.50;58.60;;;;;;4370237;32;20077;-39
2021/04/22 02:02:52;;;;;;;78.32;9.25;;;10.50;58.70;;;;;;4371112;32;20144;-39
2021/04/22 02:05:20;;;;;;;74.55;9.90;;;10.50;58.80;;;;;;4358461;32;20511;-39
2021/04/22 02:07:50;;;;;;;75.25;9.80;;;10.50;59.00;;;;;;4358285;32;20100;-39
2021/04/22 02:10:17;;;;;;;65.80;7.93;;;10.50;59.10;;;;;;4372110;32;20565;-40
2021/04/22 02:12:43;;;;;;;75.53;9.90;;;10.50;59.10;;;;;;4360008;32;20092;-39
2021/04/22 02:15:13;;;;;;;86.07;10.57;;;10.50;59.10;;;;;;4358973;32;20587;-39
2021/04/22 02:17:39;;;;;;;76.35;7.82;;;10.50;59.10;;;;;;4385839;32;20061;-40
2021/04/22 02:20:09;;;;;;;52.22;8.57;;;10.50;59.10;;;;;;4388239;32;20077;-40
2021/04/22 02:22:35;;;;;;;83.10;9.65;;;10.50;59.20;;;;;;4387818;32;20191;-39
2021/04/22 02:25:04;;;;;;;68.05;8.68;;;10.50;59.10;;;;;;4388413;32;20100;-41
2021/04/22 02:27:31;;;;;;;96.68;10.45;;;10.60;59.10;;;;;;4388073;32;20073;-41
2021/04/22 02:29:57;;;;;;;89.72;11.80;;;10.60;59.00;;;;;;4386256;32;20533;-42
2021/04/22 02:32:24;;;;;;;84.78;12.02;;;10.80;58.90;;;;;;4388106;32;20148;-41
2021/04/22 02:34:50;;;;;;;51.45;6.93;;;10.90;58.80;;;;;;4387923;32;20068;-42
2021/04/22 02:37:17;;;;;;;84.68;8.90;;;10.90;58.50;;;;;;4386318;32;20062;-42
2021/04/22 02:39:43;;;;;;;56.17;6.32;;;11.00;58.20;;;;;;4387723;32;20557;-41
2021/04/22 02:42:10;;;;;;;64.37;7.53;;;11.00;58.00;;;;;;4387741;32;20470;-43
2021/04/22 02:44:36;;;;;;;119.30;15.57;;;11.10;58.00;;;;;;4387610;32;20188;-41
2021/04/22 02:47:03;;;;;;;107.72;11.48;;;11.20;57.90;;;;;;4387625;32;20089;-40
2021/04/22 02:49:29;;;;;;;105.40;11.75;;;11.30;57.90;;;;;;4388049;32;20462;-39
2021/04/22 02:51:56;;;;;;;135.75;13.95;;;11.30;57.70;;;;;;4387973;32;20065;-43
2021/04/22 02:54:22;;;;;;;120.43;13.70;;;11.30;57.60;;;;;;4387741;32;20085;-42
2021/04/22 02:56:49;;;;;;;89.32;9.50;;;11.40;57.50;;;;;;4387795;32;20073;-43
2021/04/22 02:59:15;;;;;;;101.05;11.88;;;11.40;57.40;;;;;;4387778;32;20096;-39
2021/04/22 03:01:42;;;;;;;97.25;10.57;;;11.50;57.40;;;;;;4388274;32;20077;-40
2021/04/22 03:04:08;;;;;;;108.85;10.32;;;11.50;57.20;;;;;;4388046;32;20645;-43
2021/04/22 03:06:35;;;;;;;110.47;15.40;;;11.50;57.00;;;;;;4389873;32;20103;-42
2021/04/22 03:09:01;;;;;;;145.60;13.23;;;11.50;56.90;;;;;;4390426;32;20158;-41
2021/04/22 03:11:28;;;;;;;93.45;9.45;;;11.50;56.70;;;;;;4390703;32;20164;-40
2021/04/22 03:13:54;;;;;;;91.72;10.68;;;11.50;56.60;;;;;;4390577;32;20119;-41
2021/04/22 03:16:22;;;;;;;109.87;12.60;;;11.50;56.50;;;;;;4390431;32;20098;-42
2021/04/22 03:18:49;;;;;;;93.90;13.00;;;11.40;56.30;;;;;;4387426;32;20058;-42
2021/04/22 03:21:16;;;;;;;96.93;10.18;;;11.40;56.30;;;;;;4387818;32;20215;-40
2021/04/22 03:23:42;;;;;;;98.65;12.30;;;11.30;56.30;;;;;;4379636;32;20161;-41
2021/04/22 03:26:09;;;;;;;75.37;10.02;;;11.40;56.40;;;;;;4372452;32;20475;-41
2021/04/22 03:28:35;;;;;;;85.55;9.10;;;11.30;56.30;;;;;;4372591;32;20341;-41
2021/04/22 03:31:02;;;;;;;85.10;9.57;;;11.30;56.30;;;;;;4359928;32;20153;-41
2021/04/22 03:33:28;;;;;;;73.22;7.95;;;11.20;56.00;;;;;;4372580;32;20151;-41
2021/04/22 03:35:54;;;;;;;71.90;8.20;;;11.20;56.10;;;;;;4372363;32;20537;-42
2021/04/22 03:38:21;;;;;;;71.93;8.75;;;11.20;56.30;;;;;;4372528;32;20539;-44
2021/04/22 03:40:47;;;;;;;102.70;12.85;;;11.10;56.20;;;;;;4372087;32;20100;-39
2021/04/22 03:43:14;;;;;;;86.87;10.55;;;11.10;56.20;;;;;;4372532;32;20086;-40
2021/04/22 03:45:40;;;;;;;78.70;11.55;;;11.10;56.20;;;;;;4372019;32;20128;-41
2021/04/22 03:48:07;;;;;;;78.47;9.00;;;11.10;56.40;;;;;;4372185;32;20169;-38
2021/04/22 03:50:33;;;;;;;69.28;8.57;;;11.10;56.60;;;;;;4373981;32;20530;-40
2021/04/22 03:53:00;;;;;;;77.32;8.32;;;11.10;56.70;;;;;;4374627;32;20085;-40
2021/04/22 03:55:26;;;;;;;84.93;9.63;;;11.10;56.70;;;;;;4374486;32;20497;-39
2021/04/22 03:57:53;;;;;;;95.53;10.90;;;11.10;56.50;;;;;;4373028;32;20066;-39
2021/04/22 04:00:21;;;;;;;86.70;9.35;;;11.20;56.50;;;;;;4374440;32;20065;-40
2021/04/22 04:02:48;;;;;;;85.22;10.85;;;11.20;56.40;;;;;;4374418;32;20086;-37
2021/04/22 04:05:15;;;;;;;78.97;8.95;;;11.20;56.40;;;;;;4375015;32;20062;-38
2021/04/22 04:07:41;;;;;;;75.20;7.45;;;11.20;56.20;;;;;;4373220;32;20075;-40
2021/04/22 04:10:09;;;;;;;75.47;7.80;;;11.20;56.10;;;;;;4374406;32;20092;-40
2021/04/22 04:12:35;;;;;;;93.62;8.15;;;11.20;56.20;;;;;;4372932;32;20085;-40
2021/04/22 04:15:03;;;;;;;92.60;8.85;;;11.30;56.40;;;;;;4372797;32;20060;-38
2021/04/22 04:17:29;;;;;;;98.65;9.10;;;11.40;56.30;;;;;;4373726;32;20591;-39
2021/04/22 04:19:56;;;;;;;99.62;13.77;;;11.40;56.10;;;;;;4374568;32;20242;-40
2021/04/22 04:22:22;;;;;;;100.10;12.70;;;11.40;56.10;;;;;;4374279;32;20166;-39
2021/04/22 04:24:49;;;;;;;59.55;8.18;;;11.50;55.80;;;;;;4374366;32;20059;-35
2021/04/22 04:27:15;;;;;;;58.00;7.10;;;11.50;55.80;;;;;;4374471;32;20055;-39
2021/04/22 04:29:42;;;;;;;67.37;7.57;;;11.50;55.80;;;;;;4374168;32;20100;-39
2021/04/22 04:32:08;;;;;;;85.57;8.70;;;11.50;55.80;;;;;;4373803;32;20066;-37
2021/04/22 04:34:34;;;;;;;79.05;8.55;;;11.50;55.80;;;;;;4374113;32;20148;-37
2021/04/22 04:37:03;;;;;;;95.72;11.20;;;11.50;55.70;;;;;;4374191;32;20058;-38
2021/04/22 04:39:29;;;;;;;96.22;9.15;;;11.50;55.80;;;;;;4374399;32;20158;-40
2021/04/22 04:41:56;;;;;;;63.67;6.95;;;11.50;55.70;;;;;;4373988;32;20066;-39
2021/04/22 04:44:22;;;;;;;85.20;10.27;;;11.60;55.80;;;;;;4373725;32;20521;-38
2021/04/22 04:46:49;;;;;;;67.12;7.20;;;11.60;55.90;;;;;;4374005;32;20084;-40
2021/04/22 04:49:15;;;;;;;69.82;9.43;;;11.60;55.80;;;;;;4373886;32;20089;-40
2021/04/22 04:51:42;;;;;;;68.57;7.50;;;11.60;56.00;;;;;;4373912;32;20058;-39
2021/04/22 04:54:08;;;;;;;64.87;10.05;;;11.70;56.10;;;;;;4373784;32;20066;-38
2021/04/22 04:56:35;;;;;;;67.57;6.82;;;11.70;56.10;;;;;;4372477;32;20077;-38
2021/04/22 04:59:02;;;;;;;80.45;7.80;;;11.80;56.10;;;;;;4373722;32;20103;-38
2021/04/22 05:01:28;;;;;;;67.72;6.95;;;11.90;56.00;;;;;;4373570;32;20081;-37
2021/04/22 05:03:55;;;;;;;80.30;8.90;;;12.00;55.90;;;;;;4373475;32;20062;-36
2021/04/22 05:06:21;;;;;;;76.40;7.28;;;12.10;55.90;;;;;;4373643;32;20062;-35
2021/04/22 05:08:48;;;;;;;69.87;8.63;;;12.10;55.60;;;;;;4374123;32;20151;-37
2021/04/22 05:11:14;;;;;;;64.35;7.35;;;12.20;55.50;;;;;;4373584;32;20089;-37
2021/04/22 05:13:40;;;;;;;84.13;11.10;;;12.30;55.50;;;;;;4373405;32;20540;-37
2021/04/22 05:16:07;;;;;;;77.72;7.25;;;12.40;55.50;;;;;;4371948;32;20162;-35
2021/04/22 05:18:34;;;;;;;79.25;11.65;;;12.50;55.20;;;;;;4373193;32;20625;-36
2021/04/22 05:21:00;;;;;;;84.43;8.63;;;12.70;54.90;;;;;;4373086;32;20058;-35
2021/04/22 05:23:26;;;;;;;70.12;5.50;;;12.80;54.30;;;;;;4373066;32;20105;-38
2021/04/22 05:25:54;;;;;;;88.07;10.32;;;12.80;53.70;;;;;;4373581;32;20117;-36
2021/04/22 05:28:22;;;;;;;85.65;7.05;;;12.90;53.40;;;;;;4373150;32;20070;-38
2021/04/22 05:30:49;;;;;;;93.75;8.55;;;13.00;53.10;;;;;;4373723;32;20498;-36
2021/04/22 05:33:15;;;;;;;83.37;8.60;;;13.00;53.30;;;;;;4373434;32;20581;-38
2021/04/22 05:35:42;;;;;;;78.85;7.55;;;13.10;53.30;;;;;;4373278;32;20098;-38
2021/04/22 05:38:09;;;;;;;90.35;7.87;;;13.20;53.20;;;;;;4372994;32;20455;-39
2021/04/22 05:40:36;;;;;;;85.57;10.15;;;13.30;53.00;;;;;;4373731;32;20138;-38
2021/04/22 05:43:07;;;;;;;78.43;8.27;;;13.50;53.30;;;;;;4373459;32;20089;-39
2021/04/22 05:45:37;;;;;;;80.85;10.57;;;13.70;53.00;;;;;;4374331;32;20551;-41
2021/04/22 05:48:05;;;;;;;76.10;8.70;;;13.80;52.80;;;;;;4374613;32;20061;-38
2021/04/22 05:50:31;;;;;;;80.47;9.93;;;14.00;52.60;;;;;;4374135;32;20051;-37
2021/04/22 05:52:58;;;;;;;74.80;9.07;;;14.20;52.20;;;;;;4372893;32;20069;-39
2021/04/22 05:55:24;;;;;;;71.20;6.18;;;14.30;50.50;;;;;;4371098;32;20545;-37
2021/04/22 05:57:54;;;;;;;55.47;7.28;;;14.40;50.20;;;;;;4372828;32;20181;-38
2021/04/22 06:00:21;;;;;;;72.20;7.87;;;14.50;50.20;;;;;;4374080;32;20113;-39
2021/04/22 06:02:48;;;;;;;72.30;8.73;;;14.70;50.00;;;;;;4372866;32;20050;-40
2021/04/22 06:05:16;;;;;;;68.68;8.63;;;14.70;49.30;;;;;;4373560;32;20514;-39
2021/04/22 06:07:42;;;;;;;82.60;8.75;;;14.80;49.10;;;;;;4371595;32;20085;-39
2021/04/22 06:10:09;;;;;;;77.00;8.95;;;14.80;48.60;;;;;;4372685;32;20090;-39
2021/04/22 06:12:36;;;;;;;76.28;9.00;;;14.90;48.90;;;;;;4372750;32;20070;-39
2021/04/22 06:15:03;;;;;;;76.72;7.05;;;14.90;49.10;;;;;;4373170;32;20074;-39
2021/04/22 06:17:30;;;;;;;73.22;7.37;;;15.10;49.00;;;;;;4372961;32;20168;-38
2021/04/22 06:19:56;;;;;;;70.97;8.13;;;15.20;48.60;;;;;;4372592;32;20078;-37
2021/04/22 06:22:23;;;;;;;67.22;7.05;;;15.40;48.30;;;;;;4372892;32;20070;-38
2021/04/22 06:24:49;;;;;;;61.28;6.22;;;15.60;48.00;;;;;;4372676;32;20057;-40
2021/04/22 06:27:16;;;;;;;58.83;5.60;;;15.70;47.30;;;;;;4371247;32;20105;-41
2021/04/22 06:29:42;;;;;;;56.25;8.25;;;15.90;47.30;;;;;;4372992;32;20110;-41
2021/04/22 06:32:09;;;;;;;69.75;7.25;;;16.00;46.70;;;;;;4357619;32;20160;-43
2021/04/22 06:34:36;;;;;;;74.28;7.03;;;16.10;46.40;;;;;;4369916;32;20085;-40
2021/04/22 06:37:03;;;;;;;74.28;7.68;;;16.20;46.00;;;;;;4357759;32;20154;-39
2021/04/22 06:39:30;;;;;;;95.10;11.65;;;16.30;45.50;;;;;;4370515;32;20187;-40
2021/04/22 06:41:57;;;;;;;104.25;10.00;;;16.40;45.20;;;;;;4373009;32;20077;-39
2021/04/22 06:44:23;;;;;;;119.87;11.80;;;16.50;45.00;;;;;;4328302;33;20606;-39
2021/04/22 06:46:50;;;;;;;83.75;11.00;;;16.50;45.10;;;;;;4328666;33;20094;-38
2021/04/22 06:49:16;;;;;;;108.45;10.80;;;16.60;44.80;;;;;;4328408;33;20095;-40
2021/04/22 06:51:43;;;;;;;92.88;11.20;;;16.70;44.60;;;;;;4328449;33;20226;-40
2021/04/22 06:54:09;;;;;;;98.25;11.55;;;16.80;44.60;;;;;;4328595;33;20129;-40
2021/04/22 06:56:36;;;;;;;80.70;10.77;;;16.90;44.30;;;;;;4328411;33;20071;-40
2021/04/22 06:59:04;;;;;;;81.82;11.12;;;17.10;43.80;;;;;;4328313;33;20063;-40
2021/04/22 07:01:31;;;;;;;82.22;8.82;;;17.10;43.60;;;;;;4328368;33;20151;-38
2021/04/22 07:03:57;;;;;;;78.87;8.68;;;17.30;43.50;;;;;;4316158;33;20514;-41
2021/04/22 07:06:24;;;;;;;105.43;12.13;;;17.40;43.20;;;;;;4328451;33;20067;-41
2021/04/22 07:08:50;;;;;;;69.53;7.78;;;17.50;42.90;;;;;;4330999;33;20170;-39
2021/04/22 07:11:17;;;;;;;80.65;9.27;;;17.60;42.80;;;;;;4342828;33;20086;-41
2021/04/22 07:13:43;;;;;;;106.03;12.27;;;17.70;42.60;;;;;;4327713;33;20098;-41
2021/04/22 07:16:10;;;;;;;69.35;7.18;;;17.80;42.50;;;;;;4328048;33;20074;-41
2021/04/22 07:18:36;;;;;;;70.95;7.93;;;17.90;43.20;;;;;;4327869;33;20198;-41
2021/04/22 07:21:03;;;;;;;75.43;7.72;;;18.00;41.20;;;;;;4333276;32;20059;-39
2021/04/22 07:23:29;;;;;;;74.25;9.43;;;18.10;41.80;;;;;;4357507;32;20086;-39
2021/04/22 07:25:56;;;;;;;74.82;8.18;;;18.30;41.60;;;;;;4357932;32;20088;-40
2021/04/22 07:28:22;;;;;;;84.82;11.07;;;18.50;41.60;;;;;;4357662;32;20074;-42
2021/04/22 07:30:49;;;;;;;81.60;10.07;;;18.70;41.70;;;;;;4357436;32;20550;-42
2021/04/22 07:33:16;;;;;;;127.97;13.15;;;19.00;41.50;;;;;;4357826;32;20092;-42
2021/04/22 07:35:42;;;;;;;123.85;14.38;;;19.20;40.20;;;;;;4357519;32;20093;-41
2021/04/22 07:38:14;;;;;;;114.00;12.85;;;19.30;40.10;;;;;;4345218;32;20081;-41
2021/04/22 07:40:41;;;;;;;128.38;12.48;;;19.40;39.00;;;;;;4357830;32;20058;-41
2021/04/22 07:43:08;;;;;;;134.02;12.30;;;19.40;39.10;;;;;;4357302;32;20094;-40
2021/04/22 07:45:37;;;;;;;100.95;13.10;;;19.40;38.80;;;;;;4357271;32;20580;-40
2021/04/22 07:48:05;;;;;;;128.12;13.57;;;19.40;39.00;;;;;;4357623;32;20530;-41
2021/04/22 07:50:31;;;;;;;102.78;11.07;;;19.50;39.00;;;;;;4361102;32;20066;-41
2021/04/22 07:52:58;;;;;;;95.60;11.15;;;19.50;38.30;;;;;;4374800;32;20185;-42
2021/04/22 07:55:28;;;;;;;102.28;10.18;;;19.50;38.60;;;;;;4374807;32;20146;-41
2021/04/22 07:57:55;;;;;;;99.05;11.63;;;19.40;38.80;;;;;;4374557;32;20154;-43
2021/04/22 08:00:23;;;;;;;97.53;10.13;;;19.40;38.30;;;;;;4372922;32;20112;-43
2021/04/22 08:02:49;;;;;;;83.62;11.93;;;19.40;38.10;;;;;;4373160;32;20066;-42
2021/04/22 08:05:16;;;;;;;91.65;8.65;;;19.30;38.20;;;;;;4360219;32;20077;-41
2021/04/22 08:07:43;;;;;;;97.45;8.60;;;19.40;38.30;;;;;;4374310;32;20451;-42
2021/04/22 08:10:12;;;;;;;92.35;9.57;;;19.40;37.90;;;;;;4374208;32;20565;-41
2021/04/22 08:12:38;;;;;;;86.90;10.77;;;19.50;38.00;;;;;;4372492;32;20057;-41
2021/04/22 08:15:08;;;;;;;84.62;9.25;;;19.60;38.20;;;;;;4373955;32;20072;-41
2021/04/22 08:17:36;;;;;;;87.43;9.25;;;19.70;38.00;;;;;;4374393;32;20050;-42
2021/04/22 08:20:06;;;;;;;86.47;8.02;;;19.90;38.00;;;;;;4373914;32;20207;-33
2021/04/22 08:22:34;;;;;;;70.55;8.85;;;20.10;37.30;;;;;;4374951;32;20539;-34
2021/04/22 08:25:01;;;;;;;68.68;7.78;;;20.00;36.20;;;;;;4389256;32;20070;-31
2021/04/22 08:27:27;;;;;;;83.25;8.20;;;19.80;36.90;;;;;;4388896;32;20611;-32
2021/04/22 08:29:54;;;;;;;76.35;7.28;;;19.80;37.40;;;;;;4389212;32;20060;-36
2021/04/22 08:32:20;;;;;;;92.85;10.63;;;20.00;37.20;;;;;;4387220;32;20077;-33
2021/04/22 08:34:47;;;;;;;93.75;8.65;;;20.20;36.40;;;;;;4388913;32;20077;-33
2021/04/22 08:37:13;;;;;;;81.15;8.90;;;20.40;36.40;;;;;;4389222;32;20077;-33
2021/04/22 08:39:40;;;;;;;85.50;8.45;;;20.60;36.30;;;;;;4388835;32;20469;-33
2021/04/22 08:42:06;;;;;;;93.12;10.23;;;20.90;36.00;;;;;;4389171;32;20058;-34
2021/04/22 08:44:33;;;;;;;78.37;9.38;;;21.00;36.00;;;;;;4387658;32;20069;-33
2021/04/22 08:47:00;;;;;;;101.18;10.40;;;21.10;35.00;;;;;;4387890;32;20121;-33
2021/04/22 08:49:28;;;;;;;96.15;9.80;;;21.20;35.50;;;;;;4375018;32;20078;-33
2021/04/22 08:51:55;;;;;;;114.32;11.05;;;21.40;35.40;;;;;;4389123;32;20178;-34
2021/04/22 08:54:23;;;;;;;92.05;9.60;;;21.60;34.90;;;;;;4389198;32;20488;-33
2021/04/22 08:56:49;;;;;;;109.37;12.30;;;21.70;34.40;;;;;;4387047;32;20061;-33
2021/04/22 08:59:17;;;;;;;117.05;11.40;;;21.60;34.10;;;;;;4374517;32;20118;-33
2021/04/22 09:01:44;;;;;;;127.72;12.35;;;21.60;34.90;;;;;;4387200;32;20078;-34
2021/04/22 09:04:11;;;;;;;138.75;15.27;;;21.70;34.90;;;;;;4374217;32;20487;-37
2021/04/22 09:06:38;;;;;;;112.43;14.52;;;21.70;34.70;;;;;;4388987;32;20073;-38
2021/04/22 09:09:06;;;;;;;107.80;12.35;;;21.80;34.30;;;;;;4387484;32;20104;-35
2021/04/22 09:11:42;;;;;;;123.47;15.05;;;21.80;34.80;;;;;;4387675;32;20055;-34
2021/04/22 09:14:17;;;;;;;114.15;15.10;;;22.00;34.90;;;;;;4387281;32;20068;-34
2021/04/22 09:16:44;;;;;;;113.55;13.43;;;22.10;35.40;;;;;;4388472;32;20084;-34
2021/04/22 09:19:13;;;;;;;109.45;11.32;;;22.40;33.80;;;;;;4388655;32;20059;-33
2021/04/22 09:21:44;;;;;;;94.32;12.00;;;22.40;33.80;;;;;;4388751;32;20058;-33
2021/04/22 09:24:15;;;;;;;112.65;13.20;;;22.50;34.00;;;;;;4377231;32;20093;-33
2021/04/22 09:26:42;;;;;;;98.28;10.18;;;22.70;33.30;;;;;;4373214;32;20066;-33
2021/04/22 09:29:11;;;;;;;100.05;10.73;;;22.90;33.10;;;;;;4373458;32;20089;-33
2021/04/22 09:31:38;;;;;;;112.30;11.93;;;23.00;32.80;;;;;;4373235;32;20600;-35
2021/04/22 09:34:10;;;;;;;106.28;13.48;;;23.30;32.90;;;;;;4373666;32;20066;-34
2021/04/22 09:36:51;;;;;;;109.22;11.95;;;23.40;32.40;;;;;;4373083;32;20082;-35
2021/04/22 09:39:24;;;;;;;103.32;13.55;;;23.60;32.20;;;;;;4372988;32;20070;-34
2021/04/22 09:41:53;;;;;;;124.10;14.50;;;23.90;32.30;;;;;;4373362;32;20141;-34
2021/04/22 09:44:20;;;;;;;123.70;12.57;;;24.20;31.30;;;;;;4372864;32;20141;-35
2021/04/22 09:46:48;;;;;;;98.68;12.50;;;24.40;31.50;;;;;;4371635;32;20066;-35
2021/04/22 09:49:20;;;;;;;125.87;13.57;;;24.70;31.50;;;;;;4373458;32;20070;-35
2021/04/22 09:51:48;;;;;;;118.53;12.80;;;24.90;31.20;;;;;;4371812;32;20174;-37
2021/04/22 09:54:17;;;;;;;130.55;12.77;;;25.00;30.80;;;;;;4371575;32;20085;-35
2021/04/22 09:56:48;;;;;;;109.70;14.77;;;25.10;30.10;;;;;;4371554;32;20471;-35
2021/04/22 09:59:17;;;;;;;110.78;11.43;;;25.10;30.00;;;;;;4373398;32;20050;-36
2021/04/22 10:01:46;;;;;;;107.40;11.02;;;25.00;29.80;;;;;;4372764;32;20134;-35
2021/04/22 10:04:15;;;;;;;113.78;9.18;;;24.90;29.80;;;;;;4372887;32;20065;-34
2021/04/22 10:06:43;;;;;;;103.20;9.77;;;24.90;30.40;;;;;;4373205;32;20085;-38
2021/04/22 10:09:10;;;;;;;116.62;11.77;;;25.10;30.00;;;;;;4373207;32;20457;-36
2021/04/22 10:11:49;;;;;;;119.35;11.57;;;25.30;30.20;;;;;;4371487;32;20537;-34
2021/04/22 10:14:36;;;;;;;108.50;14.02;;;25.60;29.50;;;;;;4372635;32;20455;-36
2021/04/22 10:17:25;;;;;;;102.53;10.57;;;25.70;29.40;;;;;;4354977;32;20070;-36
2021/04/22 10:20:13;;;;;;;108.90;11.63;;;25.70;29.50;;;;;;4354896;32;20117;-34
2021/04/22 10:22:42;;;;;;;120.07;12.25;;;25.80;29.30;;;;;;4357148;32;20051;-36
2021/04/22 10:25:21;;;;;;;94.72;10.40;;;26.00;29.30;;;;;;4370406;32;20091;-35
2021/04/22 10:27:47;;;;;;;85.62;10.43;;;26.00;28.90;;;;;;4370489;32;20282;-35
2021/04/22 10:30:24;;;;;;;92.60;10.90;;;25.90;29.00;;;;;;4370359;32;20106;-35
2021/04/22 10:32:51;;;;;;;105.47;11.63;;;25.80;29.30;;;;;;4358508;32;20070;-35
2021/04/22 10:35:22;;;;;;;110.10;13.02;;;25.50;29.20;;;;;;4357896;32;20058;-34
2021/04/22 10:37:52;;;;;;;105.55;10.93;;;25.30;29.40;;;;;;4370031;32;20504;-34
2021/04/22 10:40:24;;;;;;;95.87;11.43;;;25.20;29.30;;;;;;4370268;32;20101;-35
2021/04/22 10:42:55;;;;;;;93.53;10.88;;;25.00;29.60;;;;;;4369896;32;20158;-34
2021/04/22 10:45:21;;;;;;;93.68;11.20;;;25.00;30.00;;;;;;4370003;32;20078;-34
2021/04/22 10:47:48;;;;;;;96.28;13.20;;;25.00;29.80;;;;;;4369685;32;20529;-35
2021/04/22 10:50:29;;;;;;;106.80;11.88;;;25.10;30.00;;;;;;4370076;32;20186;-36
2021/04/22 10:52:57;;;;;;;104.65;10.38;;;25.20;30.00;;;;;;4370138;32;20081;-36
2021/04/22 10:55:28;;;;;;;104.60;10.32;;;25.40;29.70;;;;;;4371789;32;20057;-35
2021/04/22 10:57:57;;;;;;;91.37;9.80;;;25.50;30.00;;;;;;4339849;33;20101;-34
2021/04/22 11:00:28;;;;;;;84.50;9.98;;;25.70;30.00;;;;;;4340223;33;20054;-34
2021/04/22 11:02:57;;;;;;;99.40;11.15;;;26.00;29.30;;;;;;4340148;33;20117;-34
2021/04/22 11:05:26;;;;;;;103.47;9.90;;;26.00;29.10;;;;;;4340364;33;20070;-36
2021/04/22 11:08:05;;;;;;;85.35;10.65;;;26.00;29.20;;;;;;4340071;33;20067;-34
2021/04/22 11:10:42;;;;;;;91.37;10.43;;;26.10;28.90;;;;;;4340474;33;20075;-36
2021/04/22 11:13:13;;;;;;;87.57;9.43;;;26.10;28.80;;;;;;4327927;33;20099;-36
2021/04/22 11:16:05;;;;;;;88.65;9.93;;;26.10;28.90;;;;;;4340103;33;20147;-35
2021/04/22 11:18:40;;;;;;;85.57;9.63;;;26.30;29.30;;;;;;4337172;33;20098;-35
2021/04/22 11:21:19;;;;;;;;;;;26.40;28.80;;;;;;4340236;33;20113;-39
2021/04/22 11:23:47;;;;;;;87.00;9.52;;;26.50;29.10;;;;;;4340130;33;19969;-37
2021/04/22 11:26:31;;;;;;;71.50;8.05;;;26.50;28.90;;;;;;4328299;33;20503;-35
2021/04/22 11:29:14;;;;;;;66.10;7.80;;;26.50;28.90;;;;;;4343075;33;20145;-36
2021/04/22 11:31:52;;;;;;;70.82;8.00;;;26.40;28.70;;;;;;4342946;33;20059;-35
2021/04/22 11:34:33;;;;;;;70.32;6.93;;;26.30;28.70;;;;;;4344903;32;20086;-35
2021/04/22 11:37:04;;;;;;;65.45;6.03;;;26.30;29.10;;;;;;4374621;32;20093;-34
2021/04/22 11:39:35;;;;;;;73.55;8.77;;;26.40;28.70;;;;;;4375006;32;20552;-38
2021/04/22 11:42:02;;;;;;;49.40;6.50;;;26.50;29.10;;;;;;4375215;32;20054;-38
2021/04/22 11:44:39;;;;;;;57.90;7.28;;;26.70;28.70;;;;;;4374605;32;20078;-37
2021/04/22 11:47:18;;;;;;;71.50;8.18;;;26.90;28.40;;;;;;4375126;32;20092;-37
2021/04/22 11:49:44;;;;;;;52.80;7.03;;;27.10;28.40;;;;;;4374860;32;20152;-37
2021/04/22 11:52:16;;;;;;;58.80;6.97;;;27.30;28.40;;;;;;4373350;32;20157;-35
2021/04/22 11:54:43;;;;;;;78.37;8.15;;;27.40;28.10;;;;;;4375020;32;20535;-38
2021/04/22 11:57:10;;;;;;;39.85;4.75;;;27.70;28.30;;;;;;4372995;32;20089;-35
2021/04/22 11:59:36;;;;;;;48.53;5.65;;;27.90;27.70;;;;;;4372996;32;20078;-38
2021/04/22 12:02:12;;;;;;;62.60;5.47;;;28.10;27.30;;;;;;4374826;32;20147;-36
2021/04/22 12:04:47;;;;;;;43.13;5.53;;;28.10;27.30;;;;;;4374586;32;20152;-37
2021/04/22 12:07:19;;;;;;;53.08;7.80;;;28.40;27.20;;;;;;4374747;32;20081;-38
2021/04/22 12:09:49;;;;;;;51.65;5.03;;;28.70;27.10;;;;;;4373011;32;20104;-38
2021/04/22 12:12:24;;;;;;;38.65;4.85;;;28.80;27.00;;;;;;4372893;32;20518;-36
2021/04/22 12:14:57;;;;;;;38.33;4.47;;;29.20;26.70;;;;;;4374656;32;20163;-36
2021/04/22 12:17:31;;;;;;;59.92;6.78;;;29.40;26.30;;;;;;4374753;32;20151;-37
2021/04/22 12:20:18;;;;;;;62.10;6.22;;;29.50;25.90;;;;;;4374427;32;20068;-38
2021/04/22 12:22:48;;;;;;;59.63;7.57;;;29.70;26.00;;;;;;4374602;32;20138;-35
2021/04/22 12:25:20;;;;;;;40.12;5.68;;;30.00;25.70;;;;;;4372987;32;20454;-36
2021/04/22 12:27:52;;;;;;;53.08;5.68;;;30.20;25.40;;;;;;4372951;32;20077;-35
2021/04/22 12:30:27;;;;;;;51.65;5.68;;;30.30;24.90;;;;;;4374491;32;20139;-39
2021/04/22 12:33:00;;;;;;;43.30;5.97;;;30.50;24.60;;;;;;4374100;32;20076;-40
2021/04/22 12:35:30;;;;;;;39.42;6.10;;;30.60;24.50;;;;;;4374119;32;20542;-40
2021/04/22 12:38:09;;;;;;;53.42;5.95;;;30.80;24.20;;;;;;4371677;32;20074;-40